createdAt,value
2018-05-16T00:00:18.187Z,1007.61
2018-05-16T00:00:58.769Z,1007.55
2018-05-16T00:01:39.735Z,1007.58
2018-05-16T00:02:20.308Z,1007.54
2018-05-16T00:03:00.883Z,1007.5
2018-05-16T00:03:41.455Z,1007.56
2018-05-16T00:04:21.998Z,1007.54
2018-05-16T00:05:02.594Z,1007.62
2018-05-16T00:05:43.177Z,1007.62
2018-05-16T00:06:23.750Z,1007.64
2018-05-16T00:07:04.308Z,1007.72
2018-05-16T00:07:44.880Z,1007.69
2018-05-16T00:08:25.445Z,1007.69
2018-05-16T00:09:05.989Z,1007.68
2018-05-16T00:09:46.568Z,1007.65
2018-05-16T00:10:27.152Z,1007.72
2018-05-16T00:11:07.714Z,1007.7
2018-05-16T00:11:48.279Z,1007.67
2018-05-16T00:12:28.864Z,1007.68
2018-05-16T00:13:09.431Z,1007.73
2018-05-16T00:13:49.991Z,1007.7
2018-05-16T00:14:30.598Z,1007.75
2018-05-16T00:15:11.177Z,1007.67
2018-05-16T00:15:51.755Z,1007.7
2018-05-16T00:16:32.318Z,1007.71
2018-05-16T00:17:12.888Z,1007.67
2018-05-16T00:17:53.449Z,1007.72
2018-05-16T00:18:34.049Z,1007.69
2018-05-16T00:19:14.625Z,1007.68
2018-05-16T00:19:55.182Z,1007.69
2018-05-16T00:20:35.749Z,1007.65
2018-05-16T00:21:16.313Z,1007.7
2018-05-16T00:21:56.888Z,1007.67
2018-05-16T00:22:37.445Z,1007.63
2018-05-16T00:23:18.042Z,1007.61
2018-05-16T00:23:58.602Z,1007.62
2018-05-16T00:24:39.142Z,1007.61
2018-05-16T00:25:19.715Z,1007.63
2018-05-16T00:26:00.281Z,1007.6
2018-05-16T00:26:40.880Z,1007.62
2018-05-16T00:27:21.439Z,1007.64
2018-05-16T00:28:02.001Z,1007.64
2018-05-16T00:28:42.560Z,1007.67
2018-05-16T00:29:23.102Z,1007.65
2018-05-16T00:30:03.650Z,1007.65
2018-05-16T00:30:44.223Z,1007.67
2018-05-16T00:31:24.787Z,1007.68
2018-05-16T00:32:05.394Z,1007.68
2018-05-16T00:32:45.951Z,1007.64
2018-05-16T00:33:26.508Z,1007.62
2018-05-16T00:34:07.053Z,1007.6
2018-05-16T00:34:47.619Z,1007.61
2018-05-16T00:35:28.189Z,1007.58
2018-05-16T00:36:08.749Z,1007.62
2018-05-16T00:36:49.316Z,1007.61
2018-05-16T00:37:29.901Z,1007.62
2018-05-16T00:38:10.473Z,1007.62
2018-05-16T00:38:51.060Z,1007.59
2018-05-16T00:39:31.660Z,1007.59
2018-05-16T00:40:12.265Z,1007.56
2018-05-16T00:40:52.849Z,1007.56
2018-05-16T00:41:33.414Z,1007.55
2018-05-16T00:42:13.991Z,1007.57
2018-05-16T00:42:54.601Z,1007.55
2018-05-16T00:43:35.156Z,1007.57
2018-05-16T00:44:15.720Z,1007.55
2018-05-16T00:44:56.283Z,1007.59
2018-05-16T00:45:36.851Z,1007.59
2018-05-16T00:46:17.414Z,1007.59
2018-05-16T00:46:57.973Z,1007.56
2018-05-16T00:47:38.539Z,1007.58
2018-05-16T00:48:19.126Z,1007.56
2018-05-16T00:48:59.716Z,1007.6
2018-05-16T00:49:40.265Z,1007.57
2018-05-16T00:50:20.821Z,1007.59
2018-05-16T00:51:01.396Z,1007.56
2018-05-16T00:51:41.953Z,1007.61
2018-05-16T00:52:22.516Z,1007.61
2018-05-16T00:53:03.100Z,1007.63
2018-05-16T00:53:43.660Z,1007.62
2018-05-16T00:54:24.238Z,1007.63
2018-05-16T00:55:04.820Z,1007.61
2018-05-16T00:55:45.386Z,1007.6
2018-05-16T00:56:25.946Z,1007.64
2018-05-16T00:57:06.535Z,1007.62
2018-05-16T00:57:47.099Z,1007.62
2018-05-16T00:58:27.656Z,1007.64
2018-05-16T00:59:08.245Z,1007.64
2018-05-16T00:59:48.800Z,1007.65
2018-05-16T01:00:29.360Z,1007.67
2018-05-16T01:01:09.933Z,1007.66
2018-05-16T01:01:50.499Z,1007.65
2018-05-16T01:02:31.061Z,1007.65
2018-05-16T01:03:11.627Z,1007.65
2018-05-16T01:03:52.253Z,1007.62
2018-05-16T01:04:32.808Z,1007.63
2018-05-16T01:05:13.365Z,1007.58
2018-05-16T01:05:53.950Z,1007.62
2018-05-16T01:06:34.531Z,1007.6
2018-05-16T01:07:15.094Z,1007.6
2018-05-16T01:07:55.650Z,1007.61
2018-05-16T01:08:36.215Z,1007.58
2018-05-16T01:09:16.813Z,1007.59
2018-05-16T01:09:57.398Z,1007.59
2018-05-16T01:10:37.936Z,1007.6
2018-05-16T01:11:18.515Z,1007.6
2018-05-16T01:11:59.101Z,1007.6
2018-05-16T01:12:39.653Z,1007.62
2018-05-16T01:13:20.221Z,1007.63
2018-05-16T01:14:00.789Z,1007.63
2018-05-16T01:14:41.389Z,1007.63
2018-05-16T01:15:21.982Z,1007.63
2018-05-16T01:16:02.535Z,1007.58
2018-05-16T01:16:43.097Z,1007.59
2018-05-16T01:17:23.662Z,1007.56
2018-05-16T01:18:04.229Z,1007.57
2018-05-16T01:18:44.805Z,1007.58
2018-05-16T01:19:25.355Z,1007.56
2018-05-16T01:20:05.976Z,1007.56
2018-05-16T01:20:46.541Z,1007.58
2018-05-16T01:21:27.117Z,1007.52
2018-05-16T01:22:07.672Z,1007.55
2018-05-16T01:22:48.226Z,1007.57
2018-05-16T01:23:28.803Z,1007.57
2018-05-16T01:24:09.383Z,1007.59
2018-05-16T01:24:49.943Z,1007.57
2018-05-16T01:25:30.517Z,1007.58
2018-05-16T01:26:11.091Z,1007.52
2018-05-16T01:26:51.676Z,1007.54
2018-05-16T01:27:32.220Z,1007.55
2018-05-16T01:28:12.786Z,1007.55
2018-05-16T01:28:53.390Z,1007.54
2018-05-16T01:29:33.953Z,1007.56
2018-05-16T01:30:14.542Z,1007.53
2018-05-16T01:30:55.105Z,1007.5
2018-05-16T01:31:35.671Z,1007.48
2018-05-16T01:32:16.242Z,1007.47
2018-05-16T01:32:56.804Z,1007.51
2018-05-16T01:33:37.379Z,1007.52
2018-05-16T01:34:17.971Z,1007.53
2018-05-16T01:34:58.533Z,1007.52
2018-05-16T01:35:39.104Z,1007.53
2018-05-16T01:36:19.674Z,1007.51
2018-05-16T01:37:00.253Z,1007.53
2018-05-16T01:37:40.852Z,1007.52
2018-05-16T01:38:21.419Z,1007.53
2018-05-16T01:39:01.976Z,1007.54
2018-05-16T01:39:42.572Z,1007.53
2018-05-16T01:40:23.124Z,1007.53
2018-05-16T01:41:03.689Z,1007.51
2018-05-16T01:41:44.237Z,1007.51
2018-05-16T01:42:24.800Z,1007.54
2018-05-16T01:43:05.384Z,1007.48
2018-05-16T01:43:45.967Z,1007.47
2018-05-16T01:44:26.549Z,1007.48
2018-05-16T01:45:07.110Z,1007.49
2018-05-16T01:45:47.672Z,1007.5
2018-05-16T01:46:28.212Z,1007.5
2018-05-16T01:47:08.779Z,1007.48
2018-05-16T01:47:49.338Z,1007.5
2018-05-16T01:48:29.894Z,1007.49
2018-05-16T01:49:10.463Z,1007.48
2018-05-16T01:49:51.026Z,1007.5
2018-05-16T01:50:31.618Z,1007.52
2018-05-16T01:51:12.232Z,1007.53
2018-05-16T01:51:52.790Z,1007.52
2018-05-16T01:52:33.350Z,1007.51
2018-05-16T01:53:13.921Z,1007.53
2018-05-16T01:53:54.482Z,1007.52
2018-05-16T01:54:35.034Z,1007.53
2018-05-16T01:55:15.586Z,1007.5
2018-05-16T01:55:56.152Z,1007.52
2018-05-16T01:56:36.717Z,1007.52
2018-05-16T01:57:17.286Z,1007.5
2018-05-16T01:57:57.894Z,1007.47
2018-05-16T01:58:38.476Z,1007.48
2018-05-16T01:59:19.016Z,1007.48
2018-05-16T01:59:59.605Z,1007.49
2018-05-16T02:00:40.175Z,1007.49
2018-05-16T02:01:20.738Z,1007.54
2018-05-16T02:02:01.296Z,1007.51
2018-05-16T02:02:41.894Z,1007.5
2018-05-16T02:03:22.441Z,1007.53
2018-05-16T02:04:03.038Z,1007.5
2018-05-16T02:04:43.586Z,1007.55
2018-05-16T02:05:24.156Z,1007.55
2018-05-16T02:06:04.722Z,1007.58
2018-05-16T02:06:45.280Z,1007.57
2018-05-16T02:07:25.848Z,1007.52
2018-05-16T02:08:06.437Z,1007.57
2018-05-16T02:08:46.983Z,1007.54
2018-05-16T02:09:27.535Z,1007.55
2018-05-16T02:10:08.126Z,1007.57
2018-05-16T02:10:48.690Z,1007.57
2018-05-16T02:11:29.329Z,1007.53
2018-05-16T02:12:09.882Z,1007.5
2018-05-16T02:12:50.452Z,1007.54
2018-05-16T02:13:31.026Z,1007.57
2018-05-16T02:14:11.595Z,1007.59
2018-05-16T02:14:52.177Z,1007.59
2018-05-16T02:15:32.721Z,1007.52
2018-05-16T02:16:13.250Z,1007.54
2018-05-16T02:16:53.809Z,1007.57
2018-05-16T02:17:34.367Z,1007.52
2018-05-16T02:18:14.917Z,1007.56
2018-05-16T02:18:55.493Z,1007.56
2018-05-16T02:19:36.072Z,1007.52
2018-05-16T02:20:16.622Z,1007.5
2018-05-16T02:20:57.178Z,1007.52
2018-05-16T02:21:37.733Z,1007.5
2018-05-16T02:22:18.302Z,1007.53
2018-05-16T02:22:58.912Z,1007.5
2018-05-16T02:23:39.487Z,1007.5
2018-05-16T02:24:20.054Z,1007.45
2018-05-16T02:25:00.622Z,1007.49
2018-05-16T02:25:41.185Z,1007.45
2018-05-16T02:26:21.763Z,1007.48
2018-05-16T02:27:02.347Z,1007.47
2018-05-16T02:27:42.886Z,1007.49
2018-05-16T02:28:23.448Z,1007.46
2018-05-16T02:29:04.007Z,1007.49
2018-05-16T02:29:44.567Z,1007.5
2018-05-16T02:30:25.135Z,1007.48
2018-05-16T02:31:05.692Z,1007.49
2018-05-16T02:31:46.240Z,1007.48
2018-05-16T02:32:26.794Z,1007.48
2018-05-16T02:33:07.375Z,1007.48
2018-05-16T02:33:47.968Z,1007.47
2018-05-16T02:34:28.541Z,1007.53
2018-05-16T02:35:09.093Z,1007.45
2018-05-16T02:35:49.692Z,1007.48
2018-05-16T02:36:30.242Z,1007.49
2018-05-16T02:37:10.819Z,1007.42
2018-05-16T02:37:51.413Z,1007.44
2018-05-16T02:38:31.971Z,1007.49
2018-05-16T02:39:12.556Z,1007.43
2018-05-16T02:39:53.113Z,1007.43
2018-05-16T02:40:33.692Z,1007.47
2018-05-16T02:41:14.273Z,1007.46
2018-05-16T02:41:54.822Z,1007.47
2018-05-16T02:42:35.385Z,1007.46
2018-05-16T02:43:15.931Z,1007.47
2018-05-16T02:43:56.499Z,1007.46
2018-05-16T02:44:37.053Z,1007.42
2018-05-16T02:45:17.601Z,1007.43
2018-05-16T02:45:58.181Z,1007.39
2018-05-16T02:46:38.760Z,1007.44
2018-05-16T02:47:19.324Z,1007.39
2018-05-16T02:47:59.877Z,1007.41
2018-05-16T02:48:40.452Z,1007.44
2018-05-16T02:49:20.980Z,1007.41
2018-05-16T02:50:01.557Z,1007.37
2018-05-16T02:50:42.121Z,1007.4
2018-05-16T02:51:22.678Z,1007.41
2018-05-16T02:52:03.249Z,1007.39
2018-05-16T02:52:43.817Z,1007.41
2018-05-16T02:53:24.414Z,1007.43
2018-05-16T02:54:04.945Z,1007.42
2018-05-16T02:54:45.506Z,1007.41
2018-05-16T02:55:26.059Z,1007.39
2018-05-16T02:56:06.643Z,1007.39
2018-05-16T02:56:47.224Z,1007.39
2018-05-16T02:57:27.828Z,1007.38
2018-05-16T02:58:08.391Z,1007.38
2018-05-16T02:58:48.955Z,1007.38
2018-05-16T02:59:29.534Z,1007.36
2018-05-16T03:00:10.115Z,1007.4
2018-05-16T03:00:50.689Z,1007.36
2018-05-16T03:01:31.241Z,1007.36
2018-05-16T03:02:11.839Z,1007.33
2018-05-16T03:02:52.441Z,1007.35
2018-05-16T03:03:32.993Z,1007.37
2018-05-16T03:04:13.581Z,1007.39
2018-05-16T03:04:54.142Z,1007.36
2018-05-16T03:05:34.719Z,1007.36
2018-05-16T03:06:15.271Z,1007.34
2018-05-16T03:06:55.845Z,1007.4
2018-05-16T03:07:36.417Z,1007.39
2018-05-16T03:08:16.993Z,1007.41
2018-05-16T03:08:57.560Z,1007.41
2018-05-16T03:09:38.129Z,1007.44
2018-05-16T03:10:18.709Z,1007.38
2018-05-16T03:10:59.291Z,1007.41
2018-05-16T03:11:39.843Z,1007.41
2018-05-16T03:12:20.397Z,1007.41
2018-05-16T03:13:00.953Z,1007.44
2018-05-16T03:13:41.532Z,1007.41
2018-05-16T03:14:22.104Z,1007.45
2018-05-16T03:15:02.684Z,1007.44
2018-05-16T03:15:43.253Z,1007.43
2018-05-16T03:16:23.841Z,1007.42
2018-05-16T03:17:04.386Z,1007.41
2018-05-16T03:17:44.944Z,1007.44
2018-05-16T03:18:25.548Z,1007.45
2018-05-16T03:19:06.115Z,1007.42
2018-05-16T03:19:46.689Z,1007.44
2018-05-16T03:20:27.241Z,1007.42
2018-05-16T03:21:07.808Z,1007.42
2018-05-16T03:21:48.367Z,1007.38
2018-05-16T03:22:28.926Z,1007.39
2018-05-16T03:23:09.484Z,1007.43
2018-05-16T03:23:50.039Z,1007.39
2018-05-16T03:24:30.632Z,1007.39
2018-05-16T03:25:11.220Z,1007.36
2018-05-16T03:25:51.760Z,1007.36
2018-05-16T03:26:32.367Z,1007.35
2018-05-16T03:27:13.008Z,1007.32
2018-05-16T03:27:53.556Z,1007.37
2018-05-16T03:28:34.120Z,1007.34
2018-05-16T03:29:14.715Z,1007.35
2018-05-16T03:29:55.280Z,1007.32
2018-05-16T03:30:35.856Z,1007.34
2018-05-16T03:31:16.441Z,1007.37
2018-05-16T03:31:58.494Z,1007.33
2018-05-16T03:32:39.062Z,1007.35
2018-05-16T03:33:19.656Z,1007.34
2018-05-16T03:34:00.231Z,1007.36
2018-05-16T03:34:40.797Z,1007.33
2018-05-16T03:35:21.361Z,1007.33
2018-05-16T03:36:01.928Z,1007.32
2018-05-16T03:36:42.456Z,1007.33
2018-05-16T03:37:23.007Z,1007.33
2018-05-16T03:38:03.569Z,1007.32
2018-05-16T03:38:44.142Z,1007.33
2018-05-16T03:39:24.696Z,1007.34
2018-05-16T03:40:05.259Z,1007.34
2018-05-16T03:40:45.838Z,1007.37
2018-05-16T03:41:26.381Z,1007.37
2018-05-16T03:42:06.946Z,1007.41
2018-05-16T03:42:47.518Z,1007.37
2018-05-16T03:43:28.081Z,1007.34
2018-05-16T03:44:08.669Z,1007.37
2018-05-16T03:44:49.368Z,1007.36
2018-05-16T03:45:29.946Z,1007.37
2018-05-16T03:46:10.519Z,1007.33
2018-05-16T03:46:51.094Z,1007.36
2018-05-16T03:47:31.656Z,1007.35
2018-05-16T03:48:12.220Z,1007.4
2018-05-16T03:48:52.784Z,1007.35
2018-05-16T03:49:33.363Z,1007.38
2018-05-16T03:50:13.921Z,1007.36
2018-05-16T03:50:54.485Z,1007.36
2018-05-16T03:51:35.043Z,1007.38
2018-05-16T03:52:15.605Z,1007.38
2018-05-16T03:52:56.170Z,1007.4
2018-05-16T03:53:36.723Z,1007.41
2018-05-16T03:54:17.293Z,1007.39
2018-05-16T03:54:57.876Z,1007.38
2018-05-16T03:55:38.461Z,1007.31
2018-05-16T03:56:19.010Z,1007.36
2018-05-16T03:56:59.567Z,1007.35
2018-05-16T03:57:40.126Z,1007.34
2018-05-16T03:58:20.690Z,1007.35
2018-05-16T03:59:01.264Z,1007.38
2018-05-16T03:59:41.829Z,1007.37
2018-05-16T04:00:22.376Z,1007.35
2018-05-16T04:01:02.913Z,1007.4
2018-05-16T04:01:43.490Z,1007.37
2018-05-16T04:02:24.103Z,1007.34
2018-05-16T04:03:04.635Z,1007.38
2018-05-16T04:03:45.187Z,1007.37
2018-05-16T04:04:25.760Z,1007.37
2018-05-16T04:05:06.347Z,1007.35
2018-05-16T04:05:46.919Z,1007.41
2018-05-16T04:06:27.494Z,1007.41
2018-05-16T04:07:08.075Z,1007.39
2018-05-16T04:07:48.676Z,1007.4
2018-05-16T04:08:29.223Z,1007.42
2018-05-16T04:09:09.791Z,1007.44
2018-05-16T04:09:50.349Z,1007.39
2018-05-16T04:10:30.886Z,1007.4
2018-05-16T04:11:11.468Z,1007.37
2018-05-16T04:11:52.034Z,1007.39
2018-05-16T04:12:32.591Z,1007.36
2018-05-16T04:13:13.155Z,1007.33
2018-05-16T04:13:53.740Z,1007.37
2018-05-16T04:14:34.301Z,1007.37
2018-05-16T04:15:14.870Z,1007.39
2018-05-16T04:15:55.443Z,1007.35
2018-05-16T04:16:36.049Z,1007.34
2018-05-16T04:17:16.618Z,1007.37
2018-05-16T04:17:57.201Z,1007.38
2018-05-16T04:18:37.768Z,1007.37
2018-05-16T04:19:18.345Z,1007.38
2018-05-16T04:19:58.894Z,1007.33
2018-05-16T04:20:39.447Z,1007.38
2018-05-16T04:21:20.003Z,1007.34
2018-05-16T04:22:00.554Z,1007.36
2018-05-16T04:22:41.112Z,1007.36
2018-05-16T04:23:21.667Z,1007.37
2018-05-16T04:24:02.224Z,1007.34
2018-05-16T04:24:42.790Z,1007.37
2018-05-16T04:25:23.373Z,1007.39
2018-05-16T04:26:03.945Z,1007.34
2018-05-16T04:26:44.510Z,1007.36
2018-05-16T04:27:25.068Z,1007.38
2018-05-16T04:28:05.635Z,1007.4
2018-05-16T04:28:46.274Z,1007.37
2018-05-16T04:29:26.760Z,1007.37
2018-05-16T04:30:07.331Z,1007.36
2018-05-16T04:30:47.925Z,1007.37
2018-05-16T04:31:28.459Z,1007.37
2018-05-16T04:32:09.013Z,1007.4
2018-05-16T04:32:49.570Z,1007.34
2018-05-16T04:33:30.172Z,1007.35
2018-05-16T04:34:10.875Z,1007.31
2018-05-16T04:34:51.433Z,1007.35
2018-05-16T04:35:32.067Z,1007.31
2018-05-16T04:36:12.641Z,1007.34
2018-05-16T04:36:53.256Z,1007.3
2018-05-16T04:37:33.879Z,1007.32
2018-05-16T04:38:14.492Z,1007.3
2018-05-16T04:38:55.046Z,1007.28
2018-05-16T04:39:35.642Z,1007.31
2018-05-16T04:40:16.436Z,1007.33
2018-05-16T04:40:57.240Z,1007.34
2018-05-16T04:41:37.877Z,1007.39
2018-05-16T04:42:18.470Z,1007.34
2018-05-16T04:42:59.027Z,1007.36
2018-05-16T04:43:39.623Z,1007.37
2018-05-16T04:44:20.197Z,1007.35
2018-05-16T04:45:00.794Z,1007.39
2018-05-16T04:45:41.347Z,1007.4
2018-05-16T04:46:21.913Z,1007.38
2018-05-16T04:47:02.473Z,1007.42
2018-05-16T04:47:43.050Z,1007.41
2018-05-16T04:48:23.621Z,1007.44
2018-05-16T04:49:04.196Z,1007.48
2018-05-16T04:49:44.758Z,1007.48
2018-05-16T04:50:25.328Z,1007.45
2018-05-16T04:51:05.897Z,1007.46
2018-05-16T04:51:46.453Z,1007.5
2018-05-16T04:52:27.014Z,1007.48
2018-05-16T04:53:07.577Z,1007.45
2018-05-16T04:53:48.131Z,1007.45
2018-05-16T04:54:28.693Z,1007.48
2018-05-16T04:55:09.267Z,1007.5
2018-05-16T04:55:49.840Z,1007.49
2018-05-16T04:56:30.409Z,1007.44
2018-05-16T04:57:10.967Z,1007.49
2018-05-16T04:57:51.534Z,1007.47
2018-05-16T04:58:32.084Z,1007.49
2018-05-16T04:59:13.503Z,1007.49
2018-05-16T04:59:54.055Z,1007.46
2018-05-16T05:00:34.630Z,1007.54
2018-05-16T05:01:15.183Z,1007.47
2018-05-16T05:01:55.776Z,1007.5
2018-05-16T05:02:36.329Z,1007.56
2018-05-16T05:03:16.884Z,1007.53
2018-05-16T05:03:57.530Z,1007.6
2018-05-16T05:04:38.952Z,1007.59
2018-05-16T05:05:19.631Z,1007.58
2018-05-16T05:06:00.188Z,1007.61
2018-05-16T05:06:40.738Z,1007.56
2018-05-16T05:07:21.478Z,1007.57
2018-05-16T05:08:02.048Z,1007.55
2018-05-16T05:08:42.605Z,1007.55
2018-05-16T05:09:23.168Z,1007.56
2018-05-16T05:10:03.731Z,1007.56
2018-05-16T05:10:44.306Z,1007.59
2018-05-16T05:11:24.860Z,1007.6
2018-05-16T05:12:05.427Z,1007.63
2018-05-16T05:12:45.983Z,1007.62
2018-05-16T05:13:26.551Z,1007.59
2018-05-16T05:14:07.134Z,1007.52
2018-05-16T05:14:47.701Z,1007.55
2018-05-16T05:15:28.296Z,1007.5
2018-05-16T05:16:08.870Z,1007.54
2018-05-16T05:16:49.420Z,1007.58
2018-05-16T05:17:29.995Z,1007.6
2018-05-16T05:18:10.632Z,1007.59
2018-05-16T05:18:51.280Z,1007.58
2018-05-16T05:19:31.697Z,1007.6
2018-05-16T05:20:12.287Z,1007.58
2018-05-16T05:20:52.862Z,1007.5
2018-05-16T05:21:33.426Z,1007.49
2018-05-16T05:22:13.992Z,1007.51
2018-05-16T05:22:54.642Z,1007.55
2018-05-16T05:23:35.210Z,1007.56
2018-05-16T05:24:15.769Z,1007.56
2018-05-16T05:24:56.331Z,1007.6
2018-05-16T05:25:36.898Z,1007.61
2018-05-16T05:26:17.588Z,1007.59
2018-05-16T05:26:58.167Z,1007.53
2018-05-16T05:27:38.706Z,1007.53
2018-05-16T05:28:19.288Z,1007.57
2018-05-16T05:28:59.866Z,1007.58
2018-05-16T05:29:40.440Z,1007.58
2018-05-16T05:30:21.068Z,1007.55
2018-05-16T05:31:01.559Z,1007.55
2018-05-16T05:31:42.155Z,1007.55
2018-05-16T05:32:22.826Z,1007.57
2018-05-16T05:33:03.395Z,1007.54
2018-05-16T05:33:44.140Z,1007.56
2018-05-16T05:34:25.037Z,1007.58
2018-05-16T05:35:05.618Z,1007.57
2018-05-16T05:35:46.199Z,1007.56
2018-05-16T05:36:26.819Z,1007.54
2018-05-16T05:37:07.517Z,1007.61
2018-05-16T05:37:48.088Z,1007.73
2018-05-16T05:38:28.651Z,1007.81
2018-05-16T05:39:09.229Z,1007.76
2018-05-16T05:39:49.793Z,1007.74
2018-05-16T05:40:30.369Z,1007.73
2018-05-16T05:41:10.941Z,1007.72
2018-05-16T05:41:51.532Z,1007.66
2018-05-16T05:42:32.122Z,1007.69
2018-05-16T05:43:12.699Z,1007.66
2018-05-16T05:43:53.279Z,1007.67
2018-05-16T05:44:33.845Z,1007.68
2018-05-16T05:45:14.431Z,1007.68
2018-05-16T05:45:55.012Z,1007.7
2018-05-16T05:46:35.595Z,1007.69
2018-05-16T05:47:16.185Z,1007.69
2018-05-16T05:47:56.758Z,1007.7
2018-05-16T05:48:37.344Z,1007.75
2018-05-16T05:49:17.954Z,1007.74
2018-05-16T05:49:58.538Z,1007.8
2018-05-16T05:50:39.120Z,1007.78
2018-05-16T05:51:19.667Z,1007.73
2018-05-16T05:52:00.232Z,1007.74
2018-05-16T05:52:40.800Z,1007.7
2018-05-16T05:53:21.360Z,1007.81
2018-05-16T05:54:01.912Z,1007.85
2018-05-16T05:54:42.498Z,1007.98
2018-05-16T05:55:23.074Z,1007.7
2018-05-16T05:56:03.709Z,1007.7
2018-05-16T05:56:44.249Z,1007.67
2018-05-16T05:57:24.794Z,1007.65
2018-05-16T05:58:05.376Z,1007.69
2018-05-16T05:58:45.901Z,1007.7
2018-05-16T05:59:26.622Z,1007.76
2018-05-16T06:00:07.233Z,1007.83
2018-05-16T06:00:47.776Z,1008.08
2018-05-16T06:01:28.406Z,1007.84
2018-05-16T06:02:08.988Z,1008.34
2018-05-16T06:02:49.564Z,1008.61
2018-05-16T06:03:30.136Z,1008.33
2018-05-16T06:04:10.697Z,1008.3
2018-05-16T06:04:51.267Z,1008.6
2018-05-16T06:05:31.887Z,1008.67
2018-05-16T06:06:12.433Z,1008.74
2018-05-16T06:06:53.090Z,1008.76
2018-05-16T06:07:33.645Z,1008.72
2018-05-16T06:08:14.222Z,1008.27
2018-05-16T06:08:54.833Z,1008.07
2018-05-16T06:09:35.390Z,1008.2
2018-05-16T06:10:15.962Z,1007.98
2018-05-16T06:10:56.521Z,1007.87
2018-05-16T06:11:37.116Z,1008.13
2018-05-16T06:12:17.855Z,1007.91
2018-05-16T06:12:58.558Z,1007.93
2018-05-16T06:13:39.207Z,1007.83
2018-05-16T06:14:19.774Z,1007.81
2018-05-16T06:15:00.399Z,1007.76
2018-05-16T06:15:40.968Z,1007.72
2018-05-16T06:16:21.546Z,1007.77
2018-05-16T06:17:02.116Z,1007.73
2018-05-16T06:17:42.723Z,1007.74
2018-05-16T06:18:23.280Z,1007.78
2018-05-16T06:19:03.856Z,1007.82
2018-05-16T06:19:44.553Z,1007.83
2018-05-16T06:20:25.025Z,1007.93
2018-05-16T06:21:05.595Z,1007.82
2018-05-16T06:21:46.153Z,1007.98
2018-05-16T06:22:26.717Z,1008.27
2018-05-16T06:23:07.292Z,1008.22
2018-05-16T06:23:47.871Z,1008.43
2018-05-16T06:24:28.450Z,1008.34
2018-05-16T06:25:09.004Z,1007.92
2018-05-16T06:25:49.580Z,1008.35
2018-05-16T06:26:30.157Z,1007.98
2018-05-16T06:27:10.883Z,1008.08
2018-05-16T06:27:51.335Z,1007.82
2018-05-16T06:28:32.153Z,1007.69
2018-05-16T06:29:12.728Z,1007.67
2018-05-16T06:29:53.384Z,1007.65
2018-05-16T06:30:33.957Z,1007.61
2018-05-16T06:31:14.507Z,1007.63
2018-05-16T06:31:55.066Z,1007.59
2018-05-16T06:32:35.654Z,1007.54
2018-05-16T06:33:16.213Z,1007.56
2018-05-16T06:33:56.785Z,1007.55
2018-05-16T06:34:37.344Z,1007.58
2018-05-16T06:35:18.017Z,1007.53
2018-05-16T06:35:58.478Z,1007.54
2018-05-16T06:36:39.052Z,1007.56
2018-05-16T06:37:19.651Z,1007.53
2018-05-16T06:38:00.230Z,1007.53
2018-05-16T06:38:40.792Z,1007.54
2018-05-16T06:39:21.404Z,1007.51
2018-05-16T06:40:02.020Z,1007.52
2018-05-16T06:40:42.581Z,1007.54
2018-05-16T06:41:23.130Z,1007.58
2018-05-16T06:42:03.703Z,1007.56
2018-05-16T06:42:44.278Z,1007.57
2018-05-16T06:43:24.810Z,1007.63
2018-05-16T06:44:05.396Z,1007.6
2018-05-16T06:44:45.983Z,1007.59
2018-05-16T06:45:26.541Z,1007.59
2018-05-16T06:46:07.093Z,1007.63
2018-05-16T06:46:47.703Z,1007.62
2018-05-16T06:47:28.246Z,1007.59
2018-05-16T06:48:08.834Z,1007.57
2018-05-16T06:48:49.397Z,1007.59
2018-05-16T06:49:30.004Z,1007.57
2018-05-16T06:50:10.579Z,1007.61
2018-05-16T06:50:51.141Z,1007.61
2018-05-16T06:51:31.733Z,1007.59
2018-05-16T06:52:12.284Z,1007.62
2018-05-16T06:52:52.861Z,1007.6
2018-05-16T06:53:33.453Z,1007.64
2018-05-16T06:54:14.029Z,1007.6
2018-05-16T06:54:54.591Z,1007.66
2018-05-16T06:55:35.139Z,1007.63
2018-05-16T06:56:15.695Z,1007.67
2018-05-16T06:56:56.258Z,1007.67
2018-05-16T06:57:36.843Z,1007.67
2018-05-16T06:58:17.422Z,1007.67
2018-05-16T06:58:57.991Z,1007.71
2018-05-16T06:59:38.561Z,1007.72
2018-05-16T07:00:19.152Z,1007.74
2018-05-16T07:00:59.726Z,1007.74
2018-05-16T07:01:40.301Z,1007.73
2018-05-16T07:02:20.861Z,1007.77
2018-05-16T07:03:01.431Z,1007.77
2018-05-16T07:03:42.003Z,1007.79
2018-05-16T07:04:22.572Z,1007.81
2018-05-16T07:05:03.145Z,1007.77
2018-05-16T07:05:43.712Z,1007.73
2018-05-16T07:06:24.280Z,1007.81
2018-05-16T07:07:04.876Z,1007.8
2018-05-16T07:07:45.435Z,1007.83
2018-05-16T07:08:26.092Z,1007.86
2018-05-16T07:09:06.569Z,1007.82
2018-05-16T07:09:47.149Z,1007.85
2018-05-16T07:10:27.708Z,1007.8
2018-05-16T07:11:08.291Z,1007.81
2018-05-16T07:11:48.872Z,1007.79
2018-05-16T07:12:29.449Z,1007.76
2018-05-16T07:13:10.031Z,1007.83
2018-05-16T07:13:50.617Z,1007.9
2018-05-16T07:14:31.168Z,1007.94
2018-05-16T07:15:11.735Z,1007.95
2018-05-16T07:15:52.308Z,1007.83
2018-05-16T07:16:32.852Z,1007.87
2018-05-16T07:17:13.412Z,1007.9
2018-05-16T07:17:53.989Z,1007.96
2018-05-16T07:18:34.557Z,1007.91
2018-05-16T07:19:15.111Z,1007.91
2018-05-16T07:19:55.662Z,1007.84
2018-05-16T07:20:36.229Z,1007.89
2018-05-16T07:21:16.776Z,1007.89
2018-05-16T07:21:57.374Z,1007.89
2018-05-16T07:22:37.940Z,1007.87
2018-05-16T07:23:18.507Z,1007.96
2018-05-16T07:23:59.089Z,1007.88
2018-05-16T07:24:39.647Z,1007.92
2018-05-16T07:25:20.196Z,1008.01
2018-05-16T07:26:00.799Z,1007.86
2018-05-16T07:26:41.335Z,1007.83
2018-05-16T07:27:21.906Z,1007.84
2018-05-16T07:28:02.476Z,1007.82
2018-05-16T07:28:43.040Z,1007.86
2018-05-16T07:29:23.616Z,1007.84
2018-05-16T07:30:04.178Z,1007.78
2018-05-16T07:30:44.773Z,1007.8
2018-05-16T07:31:25.345Z,1007.81
2018-05-16T07:32:05.918Z,1007.79
2018-05-16T07:32:46.509Z,1007.75
2018-05-16T07:33:27.125Z,1007.79
2018-05-16T07:34:07.705Z,1007.77
2018-05-16T07:34:48.272Z,1007.75
2018-05-16T07:35:28.836Z,1007.75
2018-05-16T07:36:09.400Z,1007.79
2018-05-16T07:36:49.965Z,1007.77
2018-05-16T07:37:30.521Z,1007.78
2018-05-16T07:38:11.088Z,1007.75
2018-05-16T07:38:51.641Z,1007.74
2018-05-16T07:39:32.216Z,1007.76
2018-05-16T07:40:12.812Z,1007.84
2018-05-16T07:40:53.357Z,1007.78
2018-05-16T07:41:33.924Z,1007.76
2018-05-16T07:42:14.515Z,1007.85
2018-05-16T07:42:55.085Z,1007.84
2018-05-16T07:43:35.650Z,1007.84
2018-05-16T07:44:16.212Z,1007.85
2018-05-16T07:44:56.780Z,1007.83
2018-05-16T07:45:37.430Z,1007.81
2018-05-16T07:46:17.922Z,1007.82
2018-05-16T07:46:58.581Z,1007.76
2018-05-16T07:47:39.059Z,1007.81
2018-05-16T07:48:19.631Z,1007.83
2018-05-16T07:49:00.200Z,1007.77
2018-05-16T07:49:40.782Z,1007.78
2018-05-16T07:50:21.351Z,1007.75
2018-05-16T07:51:01.926Z,1007.63
2018-05-16T07:51:42.506Z,1007.68
2018-05-16T07:52:23.079Z,1007.73
2018-05-16T07:53:03.642Z,1007.78
2018-05-16T07:53:44.226Z,1007.77
2018-05-16T07:54:24.795Z,1007.79
2018-05-16T07:55:05.362Z,1007.79
2018-05-16T07:55:45.947Z,1007.81
2018-05-16T07:56:26.520Z,1007.77
2018-05-16T07:57:07.100Z,1007.73
2018-05-16T07:57:47.671Z,1007.72
2018-05-16T07:58:28.257Z,1007.81
2018-05-16T07:59:08.837Z,1007.71
2018-05-16T07:59:49.418Z,1007.68
2018-05-16T08:00:29.992Z,1007.7
2018-05-16T08:01:10.578Z,1007.69
2018-05-16T08:01:51.145Z,1007.72
2018-05-16T08:02:31.721Z,1007.69
2018-05-16T08:03:12.302Z,1007.72
2018-05-16T08:03:52.891Z,1007.69
2018-05-16T08:04:33.479Z,1007.7
2018-05-16T08:05:14.043Z,1007.66
2018-05-16T08:05:54.623Z,1007.67
2018-05-16T08:06:35.212Z,1007.68
2018-05-16T08:07:15.812Z,1007.64
2018-05-16T08:07:56.376Z,1007.66
2018-05-16T08:08:36.936Z,1007.68
2018-05-16T08:09:17.501Z,1007.66
2018-05-16T08:09:58.104Z,1007.69
2018-05-16T08:10:38.671Z,1007.63
2018-05-16T08:11:19.247Z,1007.61
2018-05-16T08:11:59.822Z,1007.62